Aviation Digital Data Service (ADDS)

Output produced by METARs form (0357 UTC 26 June 2019)
found at http://www.aviationweather.gov/metar/data/
 
METAR text: RCNN 260330Z 14003KT 8000 -RA FEW010 BKN025 BKN060 27/24 Q1006 NOSIG RMK A2971
Conditions at: RCNN (TAINAN TW-AFB , TW) observed 0330 UTC 26 June 2019
Temperature: 27.0°C (81°F)
Dewpoint: 24.0°C (75°F) [RH = 84%]
Pressure (altimeter): 29.70 inches Hg (1006.0 mb)
Winds: from the SE (140 degrees) at 3 MPH (3 knots; 1.5 m/s)
Visibility: 5 miles ( 8 km)
Ceiling: 2500 feet AGL
Clouds: few clouds at 1000 feet AGL
broken clouds at 2500 feet AGL
broken clouds at 6000 feet AGL
Weather: -RA  (light rain)

METAR text: RCNN 260300Z 13002KT 8000 -RA SCT010 BKN025 BKN050 26/23 Q1006 NOSIG RMK A2973 RA AMT 0.6MM
Conditions at: RCNN (TAINAN TW-AFB , TW) observed 0300 UTC 26 June 2019
Temperature: 26.0°C (79°F)
Dewpoint: 23.0°C (73°F) [RH = 84%]
Pressure (altimeter): 29.70 inches Hg (1006.0 mb)
Winds: from the SE (130 degrees) at 2 MPH (2 knots; 1.0 m/s)
Visibility: 5 miles ( 8 km)
Ceiling: 2500 feet AGL
Clouds: scattered clouds at 1000 feet AGL
broken clouds at 2500 feet AGL
broken clouds at 5000 feet AGL
Weather: -RA  (light rain)

METAR text: RCNN 260230Z 10003KT 8000 -RA SCT010 BKN025 BKN050 25/23 Q1006 NOSIG RMK A2973
Conditions at: RCNN (TAINAN TW-AFB , TW) observed 0230 UTC 26 June 2019
Temperature: 25.0°C (77°F)
Dewpoint: 23.0°C (73°F) [RH = 89%]
Pressure (altimeter): 29.70 inches Hg (1006.0 mb)
Winds: from the E (100 degrees) at 3 MPH (3 knots; 1.5 m/s)
Visibility: 5 miles ( 8 km)
Ceiling: 2500 feet AGL
Clouds: scattered clouds at 1000 feet AGL
broken clouds at 2500 feet AGL
broken clouds at 5000 feet AGL
Weather: -RA  (light rain)

METAR text: RCNN 260200Z 09003KT 8000 -RA SCT010 BKN025 BKN050 25/23 Q1006 NOSIG RMK A2973 RA AMT 0.2MM
Conditions at: RCNN (TAINAN TW-AFB , TW) observed 0200 UTC 26 June 2019
Temperature: 25.0°C (77°F)
Dewpoint: 23.0°C (73°F) [RH = 89%]
Pressure (altimeter): 29.70 inches Hg (1006.0 mb)
Winds: from the E (90 degrees) at 3 MPH (3 knots; 1.5 m/s)
Visibility: 5 miles ( 8 km)
Ceiling: 2500 feet AGL
Clouds: scattered clouds at 1000 feet AGL
broken clouds at 2500 feet AGL
broken clouds at 5000 feet AGL
Weather: -RA  (light rain)

METAR text: RCNN 260130Z 16004KT 6000 -RA SCT010 BKN025 OVC050 24/23 Q1006 NOSIG RMK A2973
Conditions at: RCNN (TAINAN TW-AFB , TW) observed 0130 UTC 26 June 2019
Temperature: 24.0°C (75°F)
Dewpoint: 23.0°C (73°F) [RH = 94%]
Pressure (altimeter): 29.70 inches Hg (1006.0 mb)
Winds: from the SSE (160 degrees) at 5 MPH (4 knots; 2.1 m/s)
Visibility: 4 miles ( 6 km)
Ceiling: 2500 feet AGL
Clouds: scattered clouds at 1000 feet AGL
broken clouds at 2500 feet AGL
overcast cloud deck at 5000 feet AGL
Weather: -RA  (light rain)

METAR text: RCNN 260100Z 16004KT 6000 -RA SCT010 BKN025 OVC050 24/23 Q1006 NOSIG RMK A2973 RA AMT 1.4MM
Conditions at: RCNN (TAINAN TW-AFB , TW) observed 0100 UTC 26 June 2019
Temperature: 24.0°C (75°F)
Dewpoint: 23.0°C (73°F) [RH = 94%]
Pressure (altimeter): 29.70 inches Hg (1006.0 mb)
Winds: from the SSE (160 degrees) at 5 MPH (4 knots; 2.1 m/s)
Visibility: 4 miles ( 6 km)
Ceiling: 2500 feet AGL
Clouds: scattered clouds at 1000 feet AGL
broken clouds at 2500 feet AGL
overcast cloud deck at 5000 feet AGL
Weather: -RA  (light rain)

METAR text: RCNN 260030Z 19004KT 6000 -RA SCT010 BKN025 BKN050 24/23 Q1006 NOSIG RMK A2973
Conditions at: RCNN (TAINAN TW-AFB , TW) observed 0030 UTC 26 June 2019
Temperature: 24.0°C (75°F)
Dewpoint: 23.0°C (73°F) [RH = 94%]
Pressure (altimeter): 29.70 inches Hg (1006.0 mb)
Winds: from the S (190 degrees) at 5 MPH (4 knots; 2.1 m/s)
Visibility: 4 miles ( 6 km)
Ceiling: 2500 feet AGL
Clouds: scattered clouds at 1000 feet AGL
broken clouds at 2500 feet AGL
broken clouds at 5000 feet AGL
Weather: -RA  (light rain)

METAR text: RCNN 260000Z 18007KT 6000 -RA SCT010 FEW012CB BKN025 BKN040 24/23 Q1006 NOSIG RMK A2973 RA AMT 0.3MM CB NW
Conditions at: RCNN (TAINAN TW-AFB , TW) observed 0000 UTC 26 June 2019
Temperature: 24.0°C (75°F)
Dewpoint: 23.0°C (73°F) [RH = 94%]
Pressure (altimeter): 29.70 inches Hg (1006.0 mb)
Winds: from the S (180 degrees) at 8 MPH (7 knots; 3.6 m/s)
Visibility: 4 miles ( 6 km)
Ceiling: 2500 feet AGL
Clouds: scattered clouds at 1000 feet AGL
few clouds at 1200 feet AGL
broken clouds at 2500 feet AGL
broken clouds at 4000 feet AGL
Weather: -RA  (light rain)

METAR text: RCNN 252330Z 17010KT 7000 -RA SCT010 FEW012CB BKN021 BKN040 25/22 Q1006 RETS NOSIG RMK A2971 CB NW
Conditions at: RCNN (TAINAN TW-AFB , TW) observed 2330 UTC 25 June 2019
Temperature: 25.0°C (77°F)
Dewpoint: 22.0°C (72°F) [RH = 83%]
Pressure (altimeter): 29.70 inches Hg (1006.0 mb)
Winds: from the S (170 degrees) at 12 MPH (10 knots; 5.1 m/s)
Visibility: 4 miles ( 7 km)
Ceiling: 2100 feet AGL
Clouds: scattered clouds at 1000 feet AGL
few clouds at 1200 feet AGL
broken clouds at 2100 feet AGL
broken clouds at 4000 feet AGL
Weather: -RA  (light rain)

METAR text: RCNN 252322Z 18010KT 7000 -RA SCT010 FEW012CB BKN021 BKN040 25/22 Q1006 RETS NOSIG RMK A2971 CB NW
Conditions at: RCNN (TAINAN TW-AFB , TW) observed 2322 UTC 25 June 2019
Temperature: 25.0°C (77°F)
Dewpoint: 22.0°C (72°F) [RH = 83%]
Pressure (altimeter): 29.70 inches Hg (1006.0 mb)
Winds: from the S (180 degrees) at 12 MPH (10 knots; 5.1 m/s)
Visibility: 4 miles ( 7 km)
Ceiling: 2100 feet AGL
Clouds: scattered clouds at 1000 feet AGL
few clouds at 1200 feet AGL
broken clouds at 2100 feet AGL
broken clouds at 4000 feet AGL
Weather: -RA  (light rain)

METAR text: RCNN 252300Z 19011G21KT 7000 -TSRA SCT010 FEW012CB BKN021 BKN040 25/22 Q1006 NOSIG RMK A2971 RA AMT 0.2MM TS SW MOV N
Conditions at: RCNN (TAINAN TW-AFB , TW) observed 2300 UTC 25 June 2019
Temperature: 25.0°C (77°F)
Dewpoint: 22.0°C (72°F) [RH = 83%]
Pressure (altimeter): 29.70 inches Hg (1006.0 mb)
Winds: from the S (190 degrees) at 13 MPH (11 knots; 5.7 m/s)
gusting to 24 MPH (21 knots; 10.8 m/s)
Visibility: 4 miles ( 7 km)
Ceiling: 2100 feet AGL
Clouds: scattered clouds at 1000 feet AGL
few clouds at 1200 feet AGL
broken clouds at 2100 feet AGL
broken clouds at 4000 feet AGL
Weather: -TSRA  (light rain associated with thunderstorm(s))

METAR text: RCNN 252239Z 21012G17KT 7000 -TSRA SCT010 FEW012CB BKN021 BKN040 25/22 Q1006 NOSIG RMK A2971 TS SW MOV N
Conditions at: RCNN (TAINAN TW-AFB , TW) observed 2239 UTC 25 June 2019
Temperature: 25.0°C (77°F)
Dewpoint: 22.0°C (72°F) [RH = 83%]
Pressure (altimeter): 29.70 inches Hg (1006.0 mb)
Winds: from the SSW (210 degrees) at 14 MPH (12 knots; 6.2 m/s)
gusting to 20 MPH (17 knots; 8.7 m/s)
Visibility: 4 miles ( 7 km)
Ceiling: 2100 feet AGL
Clouds: scattered clouds at 1000 feet AGL
few clouds at 1200 feet AGL
broken clouds at 2100 feet AGL
broken clouds at 4000 feet AGL
Weather: -TSRA  (light rain associated with thunderstorm(s))

METAR text: RCNN 252237Z 21012G17KT 7000 -TSRA SCT010 FEW012CB BKN021 BKN040 25/22 Q1006 NOSIG RMK A2971 TS SW MOV N
Conditions at: RCNN (TAINAN TW-AFB , TW) observed 2237 UTC 25 June 2019
Temperature: 25.0°C (77°F)
Dewpoint: 22.0°C (72°F) [RH = 83%]
Pressure (altimeter): 29.70 inches Hg (1006.0 mb)
Winds: from the SSW (210 degrees) at 14 MPH (12 knots; 6.2 m/s)
gusting to 20 MPH (17 knots; 8.7 m/s)
Visibility: 4 miles ( 7 km)
Ceiling: 2100 feet AGL
Clouds: scattered clouds at 1000 feet AGL
few clouds at 1200 feet AGL
broken clouds at 2100 feet AGL
broken clouds at 4000 feet AGL
Weather: -TSRA  (light rain associated with thunderstorm(s))

METAR text: RCNN 252230Z 20010KT 8000 -RA VCTS SCT012 FEW014CB BKN025 BKN050 25/22 Q1005 NOSIG RMK A2970 TS SW MOV N
Conditions at: RCNN (TAINAN TW-AFB , TW) observed 2230 UTC 25 June 2019
Temperature: 25.0°C (77°F)
Dewpoint: 22.0°C (72°F) [RH = 83%]
Pressure (altimeter): 29.68 inches Hg (1005.0 mb)
Winds: from the SSW (200 degrees) at 12 MPH (10 knots; 5.1 m/s)
Visibility: 5 miles ( 8 km)
Ceiling: 2500 feet AGL
Clouds: scattered clouds at 1200 feet AGL
few clouds at 1400 feet AGL
broken clouds at 2500 feet AGL
broken clouds at 5000 feet AGL
Weather: -RA VCTS  (light rain, thunderstorm in vicinity)

METAR text: RCNN 252223Z 18009KT 8000 -RA VCTS FEW012 FEW014TCU SCT025 BKN050 25/22 Q1005 NOSIG RMK A2970 TS SW MOV N
Conditions at: RCNN (TAINAN TW-AFB , TW) observed 2223 UTC 25 June 2019
Temperature: 25.0°C (77°F)
Dewpoint: 22.0°C (72°F) [RH = 83%]
Pressure (altimeter): 29.68 inches Hg (1005.0 mb)
Winds: from the S (180 degrees) at 10 MPH (9 knots; 4.6 m/s)
Visibility: 5 miles ( 8 km)
Ceiling: 5000 feet AGL
Clouds: few clouds at 1200 feet AGL
few clouds at 1400 feet AGL
scattered clouds at 2500 feet AGL
broken clouds at 5000 feet AGL
Weather: -RA VCTS  (light rain, thunderstorm in vicinity)

METAR text: RCNN 252200Z 17003KT 9999 VCSH FEW014 FEW016TCU SCT030 BKN060 25/22 Q1005 NOSIG RMK A2970 VCSH SW TCU SW
Conditions at: RCNN (TAINAN TW-AFB , TW) observed 2200 UTC 25 June 2019
Temperature: 25.0°C (77°F)
Dewpoint: 22.0°C (72°F) [RH = 83%]
Pressure (altimeter): 29.68 inches Hg (1005.0 mb)
Winds: from the S (170 degrees) at 3 MPH (3 knots; 1.5 m/s)
Visibility: 6 or more miles (10+ km)
Ceiling: 6000 feet AGL
Clouds: few clouds at 1400 feet AGL
few clouds at 1600 feet AGL
scattered clouds at 3000 feet AGL
broken clouds at 6000 feet AGL
Weather: VCSH  (showers in vicinity)

METAR text: RCNN 252130Z 13002KT 9999 VCSH FEW014 SCT030 BKN060 25/22 Q1005 NOSIG RMK A2969 VCSH W
Conditions at: RCNN (TAINAN TW-AFB , TW) observed 2130 UTC 25 June 2019
Temperature: 25.0°C (77°F)
Dewpoint: 22.0°C (72°F) [RH = 83%]
Pressure (altimeter): 29.68 inches Hg (1005.0 mb)
Winds: from the SE (130 degrees) at 2 MPH (2 knots; 1.0 m/s)
Visibility: 6 or more miles (10+ km)
Ceiling: 6000 feet AGL
Clouds: few clouds at 1400 feet AGL
scattered clouds at 3000 feet AGL
broken clouds at 6000 feet AGL
Weather: VCSH  (showers in vicinity)

METAR text: RCNN 252100Z 12004KT 9999 VCSH FEW012 SCT030 BKN060 25/22 Q1006 NOSIG RMK A2970 VCSH W
Conditions at: RCNN (TAINAN TW-AFB , TW) observed 2100 UTC 25 June 2019
Temperature: 25.0°C (77°F)
Dewpoint: 22.0°C (72°F) [RH = 83%]
Pressure (altimeter): 29.70 inches Hg (1006.0 mb)
Winds: from the ESE (120 degrees) at 5 MPH (4 knots; 2.1 m/s)
Visibility: 6 or more miles (10+ km)
Ceiling: 6000 feet AGL
Clouds: few clouds at 1200 feet AGL
scattered clouds at 3000 feet AGL
broken clouds at 6000 feet AGL
Weather: VCSH  (showers in vicinity)

METAR text: RCNN 252030Z 11003KT 9999 FEW012 BKN060 25/22 Q1006 RMK A2971
Conditions at: RCNN (TAINAN TW-AFB , TW) observed 2030 UTC 25 June 2019
Temperature: 25.0°C (77°F)
Dewpoint: 22.0°C (72°F) [RH = 83%]
Pressure (altimeter): 29.70 inches Hg (1006.0 mb)
Winds: from the ESE (110 degrees) at 3 MPH (3 knots; 1.5 m/s)
Visibility: 6 or more miles (10+ km)
Ceiling: 6000 feet AGL
Clouds: few clouds at 1200 feet AGL
broken clouds at 6000 feet AGL
Weather: no significant weather observed at this time

METAR text: RCNN 252000Z 12004KT 9999 FEW012 BKN060 25/23 Q1006 RMK A2971
Conditions at: RCNN (TAINAN TW-AFB , TW) observed 2000 UTC 25 June 2019
Temperature: 25.0°C (77°F)
Dewpoint: 23.0°C (73°F) [RH = 89%]
Pressure (altimeter): 29.70 inches Hg (1006.0 mb)
Winds: from the ESE (120 degrees) at 5 MPH (4 knots; 2.1 m/s)
Visibility: 6 or more miles (10+ km)
Ceiling: 6000 feet AGL
Clouds: few clouds at 1200 feet AGL
broken clouds at 6000 feet AGL
Weather: no significant weather observed at this time

METAR text: RCNN 251900Z 11002KT 9999 FEW012 BKN060 25/23 Q1006 RMK A2972
Conditions at: RCNN (TAINAN TW-AFB , TW) observed 1900 UTC 25 June 2019
Temperature: 25.0°C (77°F)
Dewpoint: 23.0°C (73°F) [RH = 89%]
Pressure (altimeter): 29.70 inches Hg (1006.0 mb)
Winds: from the ESE (110 degrees) at 2 MPH (2 knots; 1.0 m/s)
Visibility: 6 or more miles (10+ km)
Ceiling: 6000 feet AGL
Clouds: few clouds at 1200 feet AGL
broken clouds at 6000 feet AGL
Weather: no significant weather observed at this time

METAR text: RCNN 251800Z 09003KT 9999 FEW012 SCT040 BKN060 25/23 Q1007 RMK A2974
Conditions at: RCNN (TAINAN TW-AFB , TW) observed 1800 UTC 25 June 2019
Temperature: 25.0°C (77°F)
Dewpoint: 23.0°C (73°F) [RH = 89%]
Pressure (altimeter): 29.73 inches Hg (1007.0 mb)
Winds: from the E (90 degrees) at 3 MPH (3 knots; 1.5 m/s)
Visibility: 6 or more miles (10+ km)
Ceiling: 6000 feet AGL
Clouds: few clouds at 1200 feet AGL
scattered clouds at 4000 feet AGL
broken clouds at 6000 feet AGL
Weather: no significant weather observed at this time

METAR text: RCNN 251700Z 08002KT 9999 FEW012 SCT030 BKN060 25/23 Q1007 RMK A2976
Conditions at: RCNN (TAINAN TW-AFB , TW) observed 1700 UTC 25 June 2019
Temperature: 25.0°C (77°F)
Dewpoint: 23.0°C (73°F) [RH = 89%]
Pressure (altimeter): 29.73 inches Hg (1007.0 mb)
Winds: from the E (80 degrees) at 2 MPH (2 knots; 1.0 m/s)
Visibility: 6 or more miles (10+ km)
Ceiling: 6000 feet AGL
Clouds: few clouds at 1200 feet AGL
scattered clouds at 3000 feet AGL
broken clouds at 6000 feet AGL
Weather: no significant weather observed at this time

METAR text: RCNN 251600Z 00000KT 9999 FEW012 SCT030 BKN060 25/23 Q1008 RMK A2977
Conditions at: RCNN (TAINAN TW-AFB , TW) observed 1600 UTC 25 June 2019
Temperature: 25.0°C (77°F)
Dewpoint: 23.0°C (73°F) [RH = 89%]
Pressure (altimeter): 29.76 inches Hg (1008.0 mb)
Winds: calm
Visibility: 6 or more miles (10+ km)
Ceiling: 6000 feet AGL
Clouds: few clouds at 1200 feet AGL
scattered clouds at 3000 feet AGL
broken clouds at 6000 feet AGL
Weather: no significant weather observed at this time

METAR text: RCNN 251500Z 00000KT 9999 VCSH FEW012 SCT030 BKN060 25/23 Q1007 RMK A2978 VCSH SW
Conditions at: RCNN (TAINAN TW-AFB , TW) observed 1500 UTC 25 June 2019
Temperature: 25.0°C (77°F)
Dewpoint: 23.0°C (73°F) [RH = 89%]
Pressure (altimeter): 29.73 inches Hg (1007.0 mb)
Winds: calm
Visibility: 6 or more miles (10+ km)
Ceiling: 6000 feet AGL
Clouds: few clouds at 1200 feet AGL
scattered clouds at 3000 feet AGL
broken clouds at 6000 feet AGL
Weather: VCSH  (showers in vicinity)

METAR text: RCNN 251408Z 28002KT 9999 VCSH FEW012 SCT030 BKN060 26/22 Q1008 RMK A2978 VCSH SW
Conditions at: RCNN (TAINAN TW-AFB , TW) observed 1408 UTC 25 June 2019
Temperature: 26.0°C (79°F)
Dewpoint: 22.0°C (72°F) [RH = 79%]
Pressure (altimeter): 29.76 inches Hg (1008.0 mb)
Winds: from the W (280 degrees) at 2 MPH (2 knots; 1.0 m/s)
Visibility: 6 or more miles (10+ km)
Ceiling: 6000 feet AGL
Clouds: few clouds at 1200 feet AGL
scattered clouds at 3000 feet AGL
broken clouds at 6000 feet AGL
Weather: VCSH  (showers in vicinity)

METAR text: RCNN 251400Z 29003KT 9000 -RA FEW010 SCT025 BKN050 26/22 Q1008 RMK A2978
Conditions at: RCNN (TAINAN TW-AFB , TW) observed 1400 UTC 25 June 2019
Temperature: 26.0°C (79°F)
Dewpoint: 22.0°C (72°F) [RH = 79%]
Pressure (altimeter): 29.76 inches Hg (1008.0 mb)
Winds: from the WNW (290 degrees) at 3 MPH (3 knots; 1.5 m/s)
Visibility: 6 miles ( 9 km)
Ceiling: 5000 feet AGL
Clouds: few clouds at 1000 feet AGL
scattered clouds at 2500 feet AGL
broken clouds at 5000 feet AGL
Weather: -RA  (light rain)

METAR text: RCNN 251330Z 28004KT 9000 -RA FEW010 SCT025 BKN050 26/22 Q1008 RMK A2979
Conditions at: RCNN (TAINAN TW-AFB , TW) observed 1330 UTC 25 June 2019
Temperature: 26.0°C (79°F)
Dewpoint: 22.0°C (72°F) [RH = 79%]
Pressure (altimeter): 29.76 inches Hg (1008.0 mb)
Winds: from the W (280 degrees) at 5 MPH (4 knots; 2.1 m/s)
Visibility: 6 miles ( 9 km)
Ceiling: 5000 feet AGL
Clouds: few clouds at 1000 feet AGL
scattered clouds at 2500 feet AGL
broken clouds at 5000 feet AGL
Weather: -RA  (light rain)

METAR text: RCNN 251303Z 27007KT 9000 -RA FEW010 SCT025 BKN050 26/22 Q1008 RMK A2979
Conditions at: RCNN (TAINAN TW-AFB , TW) observed 1303 UTC 25 June 2019
Temperature: 26.0°C (79°F)
Dewpoint: 22.0°C (72°F) [RH = 79%]
Pressure (altimeter): 29.76 inches Hg (1008.0 mb)
Winds: from the W (270 degrees) at 8 MPH (7 knots; 3.6 m/s)
Visibility: 6 miles ( 9 km)
Ceiling: 5000 feet AGL
Clouds: few clouds at 1000 feet AGL
scattered clouds at 2500 feet AGL
broken clouds at 5000 feet AGL
Weather: -RA  (light rain)

METAR text: RCNN 251300Z 26005KT 9000 VCSH FEW010 SCT025 BKN050 26/23 Q1008 RMK A2979 VCSH SW
Conditions at: RCNN (TAINAN TW-AFB , TW) observed 1300 UTC 25 June 2019
Temperature: 26.0°C (79°F)
Dewpoint: 23.0°C (73°F) [RH = 84%]
Pressure (altimeter): 29.76 inches Hg (1008.0 mb)
Winds: from the W (260 degrees) at 6 MPH (5 knots; 2.6 m/s)
Visibility: 6 miles ( 9 km)
Ceiling: 5000 feet AGL
Clouds: few clouds at 1000 feet AGL
scattered clouds at 2500 feet AGL
broken clouds at 5000 feet AGL
Weather: VCSH  (showers in vicinity)

METAR text: RCNN 251230Z 27004KT 9999 VCSH FEW012 SCT030 BKN050 27/23 Q1008 RMK A2979 VCSH W
Conditions at: RCNN (TAINAN TW-AFB , TW) observed 1230 UTC 25 June 2019
Temperature: 27.0°C (81°F)
Dewpoint: 23.0°C (73°F) [RH = 79%]
Pressure (altimeter): 29.76 inches Hg (1008.0 mb)
Winds: from the W (270 degrees) at 5 MPH (4 knots; 2.1 m/s)
Visibility: 6 or more miles (10+ km)
Ceiling: 5000 feet AGL
Clouds: few clouds at 1200 feet AGL
scattered clouds at 3000 feet AGL
broken clouds at 5000 feet AGL
Weather: VCSH  (showers in vicinity)

METAR text: RCNN 251200Z 26003KT 9999 VCSH FEW012 SCT030 BKN050 26/23 Q1008 RMK A2978 VCSH W
Conditions at: RCNN (TAINAN TW-AFB , TW) observed 1200 UTC 25 June 2019
Temperature: 26.0°C (79°F)
Dewpoint: 23.0°C (73°F) [RH = 84%]
Pressure (altimeter): 29.76 inches Hg (1008.0 mb)
Winds: from the W (260 degrees) at 3 MPH (3 knots; 1.5 m/s)
Visibility: 6 or more miles (10+ km)
Ceiling: 5000 feet AGL
Clouds: few clouds at 1200 feet AGL
scattered clouds at 3000 feet AGL
broken clouds at 5000 feet AGL
Weather: VCSH  (showers in vicinity)

METAR text: RCNN 251130Z 24004KT 9999 VCSH FEW012 SCT030 BKN050 26/22 Q1008 NOSIG RMK A2978 VCSH W
Conditions at: RCNN (TAINAN TW-AFB , TW) observed 1130 UTC 25 June 2019
Temperature: 26.0°C (79°F)
Dewpoint: 22.0°C (72°F) [RH = 79%]
Pressure (altimeter): 29.76 inches Hg (1008.0 mb)
Winds: from the WSW (240 degrees) at 5 MPH (4 knots; 2.1 m/s)
Visibility: 6 or more miles (10+ km)
Ceiling: 5000 feet AGL
Clouds: few clouds at 1200 feet AGL
scattered clouds at 3000 feet AGL
broken clouds at 5000 feet AGL
Weather: VCSH  (showers in vicinity)

METAR text: RCNN 251100Z 23003KT 9999 VCSH FEW012 SCT030 BKN060 27/21 Q1008 NOSIG RMK A2977 VCSH W
Conditions at: RCNN (TAINAN TW-AFB , TW) observed 1100 UTC 25 June 2019
Temperature: 27.0°C (81°F)
Dewpoint: 21.0°C (70°F) [RH = 70%]
Pressure (altimeter): 29.76 inches Hg (1008.0 mb)
Winds: from the SW (230 degrees) at 3 MPH (3 knots; 1.5 m/s)
Visibility: 6 or more miles (10+ km)
Ceiling: 6000 feet AGL
Clouds: few clouds at 1200 feet AGL
scattered clouds at 3000 feet AGL
broken clouds at 6000 feet AGL
Weather: VCSH  (showers in vicinity)

METAR text: RCNN 251030Z 00000KT 9999 FEW012 SCT040 BKN080 27/21 Q1007 NOSIG RMK A2975
Conditions at: RCNN (TAINAN TW-AFB , TW) observed 1030 UTC 25 June 2019
Temperature: 27.0°C (81°F)
Dewpoint: 21.0°C (70°F) [RH = 70%]
Pressure (altimeter): 29.73 inches Hg (1007.0 mb)
Winds: calm
Visibility: 6 or more miles (10+ km)
Ceiling: 8000 feet AGL
Clouds: few clouds at 1200 feet AGL
scattered clouds at 4000 feet AGL
broken clouds at 8000 feet AGL
Weather: no significant weather observed at this time

METAR text: RCNN 251000Z 18003KT 9999 FEW012 SCT040 BKN060 29/21 Q1007 NOSIG RMK A2975
Conditions at: RCNN (TAINAN TW-AFB , TW) observed 1000 UTC 25 June 2019
Temperature: 29.0°C (84°F)
Dewpoint: 21.0°C (70°F) [RH = 62%]
Pressure (altimeter): 29.73 inches Hg (1007.0 mb)
Winds: from the S (180 degrees) at 3 MPH (3 knots; 1.5 m/s)
Visibility: 6 or more miles (10+ km)
Ceiling: 6000 feet AGL
Clouds: few clouds at 1200 feet AGL
scattered clouds at 4000 feet AGL
broken clouds at 6000 feet AGL
Weather: no significant weather observed at this time

METAR text: RCNN 250930Z 00000KT 9999 FEW012 SCT040 BKN060 29/21 Q1007 NOSIG RMK A2974
Conditions at: RCNN (TAINAN TW-AFB , TW) observed 0930 UTC 25 June 2019
Temperature: 29.0°C (84°F)
Dewpoint: 21.0°C (70°F) [RH = 62%]
Pressure (altimeter): 29.73 inches Hg (1007.0 mb)
Winds: calm
Visibility: 6 or more miles (10+ km)
Ceiling: 6000 feet AGL
Clouds: few clouds at 1200 feet AGL
scattered clouds at 4000 feet AGL
broken clouds at 6000 feet AGL
Weather: no significant weather observed at this time

METAR text: RCNN 250900Z 00000KT 9999 VCSH FEW010 SCT030 BKN050 29/21 Q1007 NOSIG RMK A2975 VCSH SE
Conditions at: RCNN (TAINAN TW-AFB , TW) observed 0900 UTC 25 June 2019
Temperature: 29.0°C (84°F)
Dewpoint: 21.0°C (70°F) [RH = 62%]
Pressure (altimeter): 29.73 inches Hg (1007.0 mb)
Winds: calm
Visibility: 6 or more miles (10+ km)
Ceiling: 5000 feet AGL
Clouds: few clouds at 1000 feet AGL
scattered clouds at 3000 feet AGL
broken clouds at 5000 feet AGL
Weather: VCSH  (showers in vicinity)

METAR text: RCNN 250830Z 13002KT 9999 VCSH FEW010 SCT030 BKN050 29/23 Q1007 NOSIG RMK A2975 VCSH SW
Conditions at: RCNN (TAINAN TW-AFB , TW) observed 0830 UTC 25 June 2019
Temperature: 29.0°C (84°F)
Dewpoint: 23.0°C (73°F) [RH = 70%]
Pressure (altimeter): 29.73 inches Hg (1007.0 mb)
Winds: from the SE (130 degrees) at 2 MPH (2 knots; 1.0 m/s)
Visibility: 6 or more miles (10+ km)
Ceiling: 5000 feet AGL
Clouds: few clouds at 1000 feet AGL
scattered clouds at 3000 feet AGL
broken clouds at 5000 feet AGL
Weather: VCSH  (showers in vicinity)

METAR text: RCNN 250800Z 11003KT 9999 VCSH FEW010 SCT030 BKN050 29/23 Q1007 NOSIG RMK A2976 VCSH SW
Conditions at: RCNN (TAINAN TW-AFB , TW) observed 0800 UTC 25 June 2019
Temperature: 29.0°C (84°F)
Dewpoint: 23.0°C (73°F) [RH = 70%]
Pressure (altimeter): 29.73 inches Hg (1007.0 mb)
Winds: from the ESE (110 degrees) at 3 MPH (3 knots; 1.5 m/s)
Visibility: 6 or more miles (10+ km)
Ceiling: 5000 feet AGL
Clouds: few clouds at 1000 feet AGL
scattered clouds at 3000 feet AGL
broken clouds at 5000 feet AGL
Weather: VCSH  (showers in vicinity)

METAR text: RCNN 250730Z 12005KT 9999 VCSH FEW010 SCT030 BKN050 28/23 Q1007 NOSIG RMK A2975 VCSH SW
Conditions at: RCNN (TAINAN TW-AFB , TW) observed 0730 UTC 25 June 2019
Temperature: 28.0°C (82°F)
Dewpoint: 23.0°C (73°F) [RH = 74%]
Pressure (altimeter): 29.73 inches Hg (1007.0 mb)
Winds: from the ESE (120 degrees) at 6 MPH (5 knots; 2.6 m/s)
Visibility: 6 or more miles (10+ km)
Ceiling: 5000 feet AGL
Clouds: few clouds at 1000 feet AGL
scattered clouds at 3000 feet AGL
broken clouds at 5000 feet AGL
Weather: VCSH  (showers in vicinity)

METAR text: RCNN 250700Z 13005KT 9999 VCSH FEW010 SCT030 BKN050 27/23 Q1007 NOSIG RMK A2976 VCSH SE
Conditions at: RCNN (TAINAN TW-AFB , TW) observed 0700 UTC 25 June 2019
Temperature: 27.0°C (81°F)
Dewpoint: 23.0°C (73°F) [RH = 79%]
Pressure (altimeter): 29.73 inches Hg (1007.0 mb)
Winds: from the SE (130 degrees) at 6 MPH (5 knots; 2.6 m/s)
Visibility: 6 or more miles (10+ km)
Ceiling: 5000 feet AGL
Clouds: few clouds at 1000 feet AGL
scattered clouds at 3000 feet AGL
broken clouds at 5000 feet AGL
Weather: VCSH  (showers in vicinity)

METAR text: RCNN 250630Z 15005KT 9999 VCSH FEW010 SCT030 BKN050 26/23 Q1007 NOSIG RMK A2976 VCSH SE
Conditions at: RCNN (TAINAN TW-AFB , TW) observed 0630 UTC 25 June 2019
Temperature: 26.0°C (79°F)
Dewpoint: 23.0°C (73°F) [RH = 84%]
Pressure (altimeter): 29.73 inches Hg (1007.0 mb)
Winds: from the SSE (150 degrees) at 6 MPH (5 knots; 2.6 m/s)
Visibility: 6 or more miles (10+ km)
Ceiling: 5000 feet AGL
Clouds: few clouds at 1000 feet AGL
scattered clouds at 3000 feet AGL
broken clouds at 5000 feet AGL
Weather: VCSH  (showers in vicinity)

METAR text: RCNN 250600Z 13004KT 9999 VCSH FEW010 BKN030 BKN050 26/23 Q1007 NOSIG RMK A2976 RA AMT 0.3MM VCSH SE
Conditions at: RCNN (TAINAN TW-AFB , TW) observed 0600 UTC 25 June 2019
Temperature: 26.0°C (79°F)
Dewpoint: 23.0°C (73°F) [RH = 84%]
Pressure (altimeter): 29.73 inches Hg (1007.0 mb)
Winds: from the SE (130 degrees) at 5 MPH (4 knots; 2.1 m/s)
Visibility: 6 or more miles (10+ km)
Ceiling: 3000 feet AGL
Clouds: few clouds at 1000 feet AGL
broken clouds at 3000 feet AGL
broken clouds at 5000 feet AGL
Weather: VCSH  (showers in vicinity)

METAR text: RCNN 250535Z 11004KT 9000 VCSH FEW010 BKN030 BKN050 25/23 Q1007 NOSIG RMK A2976 VCSH E
Conditions at: RCNN (TAINAN TW-AFB , TW) observed 0535 UTC 25 June 2019
Temperature: 25.0°C (77°F)
Dewpoint: 23.0°C (73°F) [RH = 89%]
Pressure (altimeter): 29.73 inches Hg (1007.0 mb)
Winds: from the ESE (110 degrees) at 5 MPH (4 knots; 2.1 m/s)
Visibility: 6 miles ( 9 km)
Ceiling: 3000 feet AGL
Clouds: few clouds at 1000 feet AGL
broken clouds at 3000 feet AGL
broken clouds at 5000 feet AGL
Weather: VCSH  (showers in vicinity)

METAR text: RCNN 250530Z 12004KT 9000 -RA FEW010 BKN030 BKN050 25/23 Q1007 NOSIG RMK A2976
Conditions at: RCNN (TAINAN TW-AFB , TW) observed 0530 UTC 25 June 2019
Temperature: 25.0°C (77°F)
Dewpoint: 23.0°C (73°F) [RH = 89%]
Pressure (altimeter): 29.73 inches Hg (1007.0 mb)
Winds: from the ESE (120 degrees) at 5 MPH (4 knots; 2.1 m/s)
Visibility: 6 miles ( 9 km)
Ceiling: 3000 feet AGL
Clouds: few clouds at 1000 feet AGL
broken clouds at 3000 feet AGL
broken clouds at 5000 feet AGL
Weather: -RA  (light rain)

METAR text: RCNN 250500Z 12008KT 9000 -RA FEW010 BKN030 BKN050 24/23 Q1008 NOSIG RMK A2976 RA AMT 0.8MM
Conditions at: RCNN (TAINAN TW-AFB , TW) observed 0500 UTC 25 June 2019
Temperature: 24.0°C (75°F)
Dewpoint: 23.0°C (73°F) [RH = 94%]
Pressure (altimeter): 29.76 inches Hg (1008.0 mb)
Winds: from the ESE (120 degrees) at 9 MPH (8 knots; 4.1 m/s)
Visibility: 6 miles ( 9 km)
Ceiling: 3000 feet AGL
Clouds: few clouds at 1000 feet AGL
broken clouds at 3000 feet AGL
broken clouds at 5000 feet AGL
Weather: -RA  (light rain)

METAR text: RCNN 250430Z 13008KT 7000 -RA FEW010 BKN030 BKN050 24/23 Q1008 NOSIG RMK A2977
Conditions at: RCNN (TAINAN TW-AFB , TW) observed 0430 UTC 25 June 2019
Temperature: 24.0°C (75°F)
Dewpoint: 23.0°C (73°F) [RH = 94%]
Pressure (altimeter): 29.76 inches Hg (1008.0 mb)
Winds: from the SE (130 degrees) at 9 MPH (8 knots; 4.1 m/s)
Visibility: 4 miles ( 7 km)
Ceiling: 3000 feet AGL
Clouds: few clouds at 1000 feet AGL
broken clouds at 3000 feet AGL
broken clouds at 5000 feet AGL
Weather: -RA  (light rain)

METAR text: RCNN 250421Z 15008KT 7000 -RA FEW010 BKN030 BKN050 24/23 Q1008 RETS NOSIG RMK A2978
Conditions at: RCNN (TAINAN TW-AFB , TW) observed 0421 UTC 25 June 2019
Temperature: 24.0°C (75°F)
Dewpoint: 23.0°C (73°F) [RH = 94%]
Pressure (altimeter): 29.76 inches Hg (1008.0 mb)
Winds: from the SSE (150 degrees) at 9 MPH (8 knots; 4.1 m/s)
Visibility: 4 miles ( 7 km)
Ceiling: 3000 feet AGL
Clouds: few clouds at 1000 feet AGL
broken clouds at 3000 feet AGL
broken clouds at 5000 feet AGL
Weather: -RA  (light rain)

METAR text: RCNN 250400Z 13008KT 6000 -SHRA SCT008 FEW012CB BKN014 OVC025 24/23 Q1009 RETS NOSIG RMK A2980 RA AMT 2.2MM CB E
Conditions at: RCNN (TAINAN TW-AFB , TW) observed 0400 UTC 25 June 2019
Temperature: 24.0°C (75°F)
Dewpoint: 23.0°C (73°F) [RH = 94%]
Pressure (altimeter): 29.79 inches Hg (1009.0 mb)
Winds: from the SE (130 degrees) at 9 MPH (8 knots; 4.1 m/s)
Visibility: 4 miles ( 6 km)
Ceiling: 1400 feet AGL
Clouds: scattered clouds at 800 feet AGL
few clouds at 1200 feet AGL
broken clouds at 1400 feet AGL
overcast cloud deck at 2500 feet AGL
Weather: -SHRA  (light rain showers)

METAR text: RCNN 250343Z 12005KT 5000 -SHRA SCT008 FEW012CB BKN014 OVC025 24/23 Q1009 NOSIG RMK A2980 CB E
Conditions at: RCNN (TAINAN TW-AFB , TW) observed 0343 UTC 25 June 2019
Temperature: 24.0°C (75°F)
Dewpoint: 23.0°C (73°F) [RH = 94%]
Pressure (altimeter): 29.79 inches Hg (1009.0 mb)
Winds: from the ESE (120 degrees) at 6 MPH (5 knots; 2.6 m/s)
Visibility: 3 miles ( 5 km)
Ceiling: 1400 feet AGL
Clouds: scattered clouds at 800 feet AGL
few clouds at 1200 feet AGL
broken clouds at 1400 feet AGL
overcast cloud deck at 2500 feet AGL
Weather: -SHRA  (light rain showers)

METAR text: RCNN 250330Z 13005KT 5000 -TSRA SCT008 FEW012CB BKN014 OVC025 24/23 Q1009 NOSIG RMK A2980 TS E STNRY
Conditions at: RCNN (TAINAN TW-AFB , TW) observed 0330 UTC 25 June 2019
Temperature: 24.0°C (75°F)
Dewpoint: 23.0°C (73°F) [RH = 94%]
Pressure (altimeter): 29.79 inches Hg (1009.0 mb)
Winds: from the SE (130 degrees) at 6 MPH (5 knots; 2.6 m/s)
Visibility: 3 miles ( 5 km)
Ceiling: 1400 feet AGL
Clouds: scattered clouds at 800 feet AGL
few clouds at 1200 feet AGL
broken clouds at 1400 feet AGL
overcast cloud deck at 2500 feet AGL
Weather: -TSRA  (light rain associated with thunderstorm(s))

METAR text: RCNN 250309Z 10006KT 5000 -TSRA SCT008 FEW012CB BKN014 OVC025 24/23 Q1009 RERA NOSIG RMK A2982 TS E STNRY
Conditions at: RCNN (TAINAN TW-AFB , TW) observed 0309 UTC 25 June 2019
Temperature: 24.0°C (75°F)
Dewpoint: 23.0°C (73°F) [RH = 94%]
Pressure (altimeter): 29.79 inches Hg (1009.0 mb)
Winds: from the E (100 degrees) at 7 MPH (6 knots; 3.1 m/s)
Visibility: 3 miles ( 5 km)
Ceiling: 1400 feet AGL
Clouds: scattered clouds at 800 feet AGL
few clouds at 1200 feet AGL
broken clouds at 1400 feet AGL
overcast cloud deck at 2500 feet AGL
Weather: -TSRA  (light rain associated with thunderstorm(s))

METAR text: RCNN 250300Z 11004KT 4000 -TSRA SCT008 FEW012CB BKN014 OVC025 24/23 Q1010 RETSRA NOSIG RMK A2983 RA AMT 11.8MM TS E STNRY
Conditions at: RCNN (TAINAN TW-AFB , TW) observed 0300 UTC 25 June 2019
Temperature: 24.0°C (75°F)
Dewpoint: 23.0°C (73°F) [RH = 94%]
Pressure (altimeter): 29.82 inches Hg (1010.0 mb)
Winds: from the ESE (110 degrees) at 5 MPH (4 knots; 2.1 m/s)
Visibility: 2.49 miles (4.01 km)
Ceiling: 1400 feet AGL
Clouds: scattered clouds at 800 feet AGL
few clouds at 1200 feet AGL
broken clouds at 1400 feet AGL
overcast cloud deck at 2500 feet AGL
Weather: -TSRA  (light rain associated with thunderstorm(s))

METAR text: RCNN 250243Z 27003KT 4000 -TSRA SCT008 FEW012CB BKN014 OVC025 24/23 Q1011 NOSIG RMK A2986 TS E STNRY
Conditions at: RCNN (TAINAN TW-AFB , TW) observed 0243 UTC 25 June 2019
Temperature: 24.0°C (75°F)
Dewpoint: 23.0°C (73°F) [RH = 94%]
Pressure (altimeter): 29.85 inches Hg (1011.0 mb)
Winds: from the W (270 degrees) at 3 MPH (3 knots; 1.5 m/s)
Visibility: 2.49 miles (4.01 km)
Ceiling: 1400 feet AGL
Clouds: scattered clouds at 800 feet AGL
few clouds at 1200 feet AGL
broken clouds at 1400 feet AGL
overcast cloud deck at 2500 feet AGL
Weather: -TSRA  (light rain associated with thunderstorm(s))

METAR text: RCNN 250230Z 25009G19KT 2000 TSRA BKN006 FEW014CB OVC020 24/23 Q1011 NOSIG RMK A2986 TS E STNRY
Conditions at: RCNN (TAINAN TW-AFB , TW) observed 0230 UTC 25 June 2019
Temperature: 24.0°C (75°F)
Dewpoint: 23.0°C (73°F) [RH = 94%]
Pressure (altimeter): 29.85 inches Hg (1011.0 mb)
Winds: from the WSW (250 degrees) at 10 MPH (9 knots; 4.6 m/s)
gusting to 22 MPH (19 knots; 9.8 m/s)
Visibility: 1.24 miles (2.00 km)
Ceiling: 600 feet AGL
Clouds: broken clouds at 600 feet AGL
few clouds at 1400 feet AGL
overcast cloud deck at 2000 feet AGL
Weather: TSRA  (rain associated with thunderstorm(s))

METAR text: RCNN 250213Z 24014G24KT 1600 TSRA BKN006 FEW014CB OVC020 23/22 Q1010 NOSIG RMK A2985 TS W STNRY
Conditions at: RCNN (TAINAN TW-AFB , TW) observed 0213 UTC 25 June 2019
Temperature: 23.0°C (73°F)
Dewpoint: 22.0°C (72°F) [RH = 94%]
Pressure (altimeter): 29.82 inches Hg (1010.0 mb)
Winds: from the WSW (240 degrees) at 16 MPH (14 knots; 7.2 m/s)
gusting to 28 MPH (24 knots; 12.3 m/s)
Visibility: 0.99 miles (1.59 km)
Ceiling: 600 feet AGL
Clouds: broken clouds at 600 feet AGL
few clouds at 1400 feet AGL
overcast cloud deck at 2000 feet AGL
Weather: TSRA  (rain associated with thunderstorm(s))

METAR text: RCNN 250203Z 23014KT 2400 TSRA BKN006 FEW014CB OVC020 25/22 Q1010 NOSIG RMK A2985 TS W MOV E
Conditions at: RCNN (TAINAN TW-AFB , TW) observed 0203 UTC 25 June 2019
Temperature: 25.0°C (77°F)
Dewpoint: 22.0°C (72°F) [RH = 83%]
Pressure (altimeter): 29.82 inches Hg (1010.0 mb)
Winds: from the SW (230 degrees) at 16 MPH (14 knots; 7.2 m/s)
Visibility: 1.49 miles (2.40 km)
Ceiling: 600 feet AGL
Clouds: broken clouds at 600 feet AGL
few clouds at 1400 feet AGL
overcast cloud deck at 2000 feet AGL
Weather: TSRA  (rain associated with thunderstorm(s))

METAR text: RCNN 250200Z 22012KT 4000 TSRA BKN006 FEW014CB OVC020 24/22 Q1010 NOSIG RMK A2984 RA AMT 1.7MM TS W MOV E
Conditions at: RCNN (TAINAN TW-AFB , TW) observed 0200 UTC 25 June 2019
Temperature: 24.0°C (75°F)
Dewpoint: 22.0°C (72°F) [RH = 89%]
Pressure (altimeter): 29.82 inches Hg (1010.0 mb)
Winds: from the SW (220 degrees) at 14 MPH (12 knots; 6.2 m/s)
Visibility: 2.49 miles (4.01 km)
Ceiling: 600 feet AGL
Clouds: broken clouds at 600 feet AGL
few clouds at 1400 feet AGL
overcast cloud deck at 2000 feet AGL
Weather: TSRA  (rain associated with thunderstorm(s))

METAR text: RCNN 250147Z 22013KT 4000 TSRA BKN008 FEW014CB BKN020 25/23 Q1009 NOSIG RMK A2982 TS W MOV E
Conditions at: RCNN (TAINAN TW-AFB , TW) observed 0147 UTC 25 June 2019
Temperature: 25.0°C (77°F)
Dewpoint: 23.0°C (73°F) [RH = 89%]
Pressure (altimeter): 29.79 inches Hg (1009.0 mb)
Winds: from the SW (220 degrees) at 15 MPH (13 knots; 6.7 m/s)
Visibility: 2.49 miles (4.01 km)
Ceiling: 800 feet AGL
Clouds: broken clouds at 800 feet AGL
few clouds at 1400 feet AGL
broken clouds at 2000 feet AGL
Weather: TSRA  (rain associated with thunderstorm(s))

METAR text: RCNN 250137Z 20008G18KT 6000 -SHRA VCTS SCT008 FEW016CB BKN020 BKN050 27/22 Q1009 NOSIG RMK A2981 TS W MOV VRBL
Conditions at: RCNN (TAINAN TW-AFB , TW) observed 0137 UTC 25 June 2019
Temperature: 27.0°C (81°F)
Dewpoint: 22.0°C (72°F) [RH = 74%]
Pressure (altimeter): 29.79 inches Hg (1009.0 mb)
Winds: from the SSW (200 degrees) at 9 MPH (8 knots; 4.1 m/s)
gusting to 21 MPH (18 knots; 9.3 m/s)
Visibility: 4 miles ( 6 km)
Ceiling: 2000 feet AGL
Clouds: scattered clouds at 800 feet AGL
few clouds at 1600 feet AGL
broken clouds at 2000 feet AGL
broken clouds at 5000 feet AGL
Weather: -SHRA VCTS  (light rain showers, thunderstorm in vicinity)

METAR text: RCNN 250130Z 19008KT 6000 VCSH SCT008 FEW016CB BKN020 BKN050 28/24 Q1009 NOSIG RMK A2981 CB SW VCSH SW-W
Conditions at: RCNN (TAINAN TW-AFB , TW) observed 0130 UTC 25 June 2019
Temperature: 28.0°C (82°F)
Dewpoint: 24.0°C (75°F) [RH = 79%]
Pressure (altimeter): 29.79 inches Hg (1009.0 mb)
Winds: from the S (190 degrees) at 9 MPH (8 knots; 4.1 m/s)
Visibility: 4 miles ( 6 km)
Ceiling: 2000 feet AGL
Clouds: scattered clouds at 800 feet AGL
few clouds at 1600 feet AGL
broken clouds at 2000 feet AGL
broken clouds at 5000 feet AGL
Weather: VCSH  (showers in vicinity)

METAR text: RCNN 250100Z 12003KT 8000 VCSH FEW014 FEW016CB SCT025 BKN060 30/24 Q1009 NOSIG RMK A2980 CB SW VCSH SW-W
Conditions at: RCNN (TAINAN TW-AFB , TW) observed 0100 UTC 25 June 2019
Temperature: 30.0°C (86°F)
Dewpoint: 24.0°C (75°F) [RH = 70%]
Pressure (altimeter): 29.79 inches Hg (1009.0 mb)
Winds: from the ESE (120 degrees) at 3 MPH (3 knots; 1.5 m/s)
Visibility: 5 miles ( 8 km)
Ceiling: 6000 feet AGL
Clouds: few clouds at 1400 feet AGL
few clouds at 1600 feet AGL
scattered clouds at 2500 feet AGL
broken clouds at 6000 feet AGL
Weather: VCSH  (showers in vicinity)

METAR text: RCNN 250030Z 09002KT 9999 VCSH FEW014 FEW016CB SCT025 BKN100 30/24 Q1009 NOSIG RMK A2980 CB W VCSH W-NW
Conditions at: RCNN (TAINAN TW-AFB , TW) observed 0030 UTC 25 June 2019
Temperature: 30.0°C (86°F)
Dewpoint: 24.0°C (75°F) [RH = 70%]
Pressure (altimeter): 29.79 inches Hg (1009.0 mb)
Winds: from the E (90 degrees) at 2 MPH (2 knots; 1.0 m/s)
Visibility: 6 or more miles (10+ km)
Ceiling: 10000 feet AGL
Clouds: few clouds at 1400 feet AGL
few clouds at 1600 feet AGL
scattered clouds at 2500 feet AGL
broken clouds at 10000 feet AGL
Weather: VCSH  (showers in vicinity)

METAR text: RCNN 250000Z 08002KT 9999 VCSH FEW014 FEW016CB SCT030 BKN060 27/23 Q1009 NOSIG RMK A2980 CB NW VCSH NW
Conditions at: RCNN (TAINAN TW-AFB , TW) observed 0000 UTC 25 June 2019
Temperature: 27.0°C (81°F)
Dewpoint: 23.0°C (73°F) [RH = 79%]
Pressure (altimeter): 29.79 inches Hg (1009.0 mb)
Winds: from the E (80 degrees) at 2 MPH (2 knots; 1.0 m/s)
Visibility: 6 or more miles (10+ km)
Ceiling: 6000 feet AGL
Clouds: few clouds at 1400 feet AGL
few clouds at 1600 feet AGL
scattered clouds at 3000 feet AGL
broken clouds at 6000 feet AGL
Weather: VCSH  (showers in vicinity)

METAR text: RCNN 242330Z 09003KT 9999 VCSH FEW012 SCT030 BKN060 27/23 Q1009 NOSIG RMK A2980 VCSH NW
Conditions at: RCNN (TAINAN TW-AFB , TW) observed 2330 UTC 24 June 2019
Temperature: 27.0°C (81°F)
Dewpoint: 23.0°C (73°F) [RH = 79%]
Pressure (altimeter): 29.79 inches Hg (1009.0 mb)
Winds: from the E (90 degrees) at 3 MPH (3 knots; 1.5 m/s)
Visibility: 6 or more miles (10+ km)
Ceiling: 6000 feet AGL
Clouds: few clouds at 1200 feet AGL
scattered clouds at 3000 feet AGL
broken clouds at 6000 feet AGL
Weather: VCSH  (showers in vicinity)

METAR text: RCNN 242300Z 07002KT 9999 FEW012 SCT030 BKN100 27/23 Q1008 NOSIG RMK A2979
Conditions at: RCNN (TAINAN TW-AFB , TW) observed 2300 UTC 24 June 2019
Temperature: 27.0°C (81°F)
Dewpoint: 23.0°C (73°F) [RH = 79%]
Pressure (altimeter): 29.76 inches Hg (1008.0 mb)
Winds: from the ENE (70 degrees) at 2 MPH (2 knots; 1.0 m/s)
Visibility: 6 or more miles (10+ km)
Ceiling: 10000 feet AGL
Clouds: few clouds at 1200 feet AGL
scattered clouds at 3000 feet AGL
broken clouds at 10000 feet AGL
Weather: no significant weather observed at this time

METAR text: RCNN 242230Z 05002KT 9999 FEW012 SCT030 BKN100 26/23 Q1008 NOSIG RMK A2978
Conditions at: RCNN (TAINAN TW-AFB , TW) observed 2230 UTC 24 June 2019
Temperature: 26.0°C (79°F)
Dewpoint: 23.0°C (73°F) [RH = 84%]
Pressure (altimeter): 29.76 inches Hg (1008.0 mb)
Winds: from the NE (50 degrees) at 2 MPH (2 knots; 1.0 m/s)
Visibility: 6 or more miles (10+ km)
Ceiling: 10000 feet AGL
Clouds: few clouds at 1200 feet AGL
scattered clouds at 3000 feet AGL
broken clouds at 10000 feet AGL
Weather: no significant weather observed at this time

METAR text: RCNN 242200Z 09002KT 9999 FEW012 SCT030 BKN100 25/23 Q1008 NOSIG RMK A2978
Conditions at: RCNN (TAINAN TW-AFB , TW) observed 2200 UTC 24 June 2019
Temperature: 25.0°C (77°F)
Dewpoint: 23.0°C (73°F) [RH = 89%]
Pressure (altimeter): 29.76 inches Hg (1008.0 mb)
Winds: from the E (90 degrees) at 2 MPH (2 knots; 1.0 m/s)
Visibility: 6 or more miles (10+ km)
Ceiling: 10000 feet AGL
Clouds: few clouds at 1200 feet AGL
scattered clouds at 3000 feet AGL
broken clouds at 10000 feet AGL
Weather: no significant weather observed at this time

METAR text: RCNN 242130Z 10002KT 9999 FEW012 BKN060 25/23 Q1008 NOSIG RMK A2978
Conditions at: RCNN (TAINAN TW-AFB , TW) observed 2130 UTC 24 June 2019
Temperature: 25.0°C (77°F)
Dewpoint: 23.0°C (73°F) [RH = 89%]
Pressure (altimeter): 29.76 inches Hg (1008.0 mb)
Winds: from the E (100 degrees) at 2 MPH (2 knots; 1.0 m/s)
Visibility: 6 or more miles (10+ km)
Ceiling: 6000 feet AGL
Clouds: few clouds at 1200 feet AGL
broken clouds at 6000 feet AGL
Weather: no significant weather observed at this time

METAR text: RCNN 242100Z 09003KT 9999 FEW012 BKN060 25/23 Q1008 NOSIG RMK A2977
Conditions at: RCNN (TAINAN TW-AFB , TW) observed 2100 UTC 24 June 2019
Temperature: 25.0°C (77°F)
Dewpoint: 23.0°C (73°F) [RH = 89%]
Pressure (altimeter): 29.76 inches Hg (1008.0 mb)
Winds: from the E (90 degrees) at 3 MPH (3 knots; 1.5 m/s)
Visibility: 6 or more miles (10+ km)
Ceiling: 6000 feet AGL
Clouds: few clouds at 1200 feet AGL
broken clouds at 6000 feet AGL
Weather: no significant weather observed at this time

METAR text: RCNN 242030Z 11002KT 9999 FEW012 BKN060 25/23 Q1008 RMK A2977
Conditions at: RCNN (TAINAN TW-AFB , TW) observed 2030 UTC 24 June 2019
Temperature: 25.0°C (77°F)
Dewpoint: 23.0°C (73°F) [RH = 89%]
Pressure (altimeter): 29.76 inches Hg (1008.0 mb)
Winds: from the ESE (110 degrees) at 2 MPH (2 knots; 1.0 m/s)
Visibility: 6 or more miles (10+ km)
Ceiling: 6000 feet AGL
Clouds: few clouds at 1200 feet AGL
broken clouds at 6000 feet AGL
Weather: no significant weather observed at this time

METAR text: RCNN 242000Z 12002KT 9999 FEW012 BKN060 25/23 Q1007 RMK A2976
Conditions at: RCNN (TAINAN TW-AFB , TW) observed 2000 UTC 24 June 2019
Temperature: 25.0°C (77°F)
Dewpoint: 23.0°C (73°F) [RH = 89%]
Pressure (altimeter): 29.73 inches Hg (1007.0 mb)
Winds: from the ESE (120 degrees) at 2 MPH (2 knots; 1.0 m/s)
Visibility: 6 or more miles (10+ km)
Ceiling: 6000 feet AGL
Clouds: few clouds at 1200 feet AGL
broken clouds at 6000 feet AGL
Weather: no significant weather observed at this time

METAR text: RCNN 241900Z 00000KT 9999 FEW012 BKN060 25/23 Q1007 RMK A2976
Conditions at: RCNN (TAINAN TW-AFB , TW) observed 1900 UTC 24 June 2019
Temperature: 25.0°C (77°F)
Dewpoint: 23.0°C (73°F) [RH = 89%]
Pressure (altimeter): 29.73 inches Hg (1007.0 mb)
Winds: calm
Visibility: 6 or more miles (10+ km)
Ceiling: 6000 feet AGL
Clouds: few clouds at 1200 feet AGL
broken clouds at 6000 feet AGL
Weather: no significant weather observed at this time

METAR text: RCNN 241800Z 00000KT 9999 FEW012 BKN050 25/24 Q1007 RMK A2976
Conditions at: RCNN (TAINAN TW-AFB , TW) observed 1800 UTC 24 June 2019
Temperature: 25.0°C (77°F)
Dewpoint: 24.0°C (75°F) [RH = 94%]
Pressure (altimeter): 29.73 inches Hg (1007.0 mb)
Winds: calm
Visibility: 6 or more miles (10+ km)
Ceiling: 5000 feet AGL
Clouds: few clouds at 1200 feet AGL
broken clouds at 5000 feet AGL
Weather: no significant weather observed at this time

METAR text: RCNN 241700Z 11002KT 9999 FEW012 BKN050 25/24 Q1008 RMK A2977
Conditions at: RCNN (TAINAN TW-AFB , TW) observed 1700 UTC 24 June 2019
Temperature: 25.0°C (77°F)
Dewpoint: 24.0°C (75°F) [RH = 94%]
Pressure (altimeter): 29.76 inches Hg (1008.0 mb)
Winds: from the ESE (110 degrees) at 2 MPH (2 knots; 1.0 m/s)
Visibility: 6 or more miles (10+ km)
Ceiling: 5000 feet AGL
Clouds: few clouds at 1200 feet AGL
broken clouds at 5000 feet AGL
Weather: no significant weather observed at this time

METAR text: RCNN 241600Z 10002KT 9000 VCSH FEW010 BKN050 26/24 Q1009 RMK A2980 VCSH W
Conditions at: RCNN (TAINAN TW-AFB , TW) observed 1600 UTC 24 June 2019
Temperature: 26.0°C (79°F)
Dewpoint: 24.0°C (75°F) [RH = 89%]
Pressure (altimeter): 29.79 inches Hg (1009.0 mb)
Winds: from the E (100 degrees) at 2 MPH (2 knots; 1.0 m/s)
Visibility: 6 miles ( 9 km)
Ceiling: 5000 feet AGL
Clouds: few clouds at 1000 feet AGL
broken clouds at 5000 feet AGL
Weather: VCSH  (showers in vicinity)

Forecast for: RCNN (TAINAN TW-AFB , TW)
Text: TAF RCNN 252300Z 2600/2624 24010KT 5000 RA BR SCT010 BKN021 OVC040 TX29/2606Z TN25/2620Z
Forecast period: 0000 to 0100 UTC 26 June 2019
Forecast type: FROM: standard forecast or significant change
Winds: from the WSW (240 degrees) at 12 MPH (10 knots; 5.1 m/s)
Visibility: 3 miles (5 km)
Ceiling: 2100 feet AGL
Clouds: scattered clouds at 1000 feet AGL
broken clouds at 2100 feet AGL
overcast cloud deck at 4000 feet AGL
Weather: RA BR  (moderate rain, mist)
Text: BECMG 2601/2604 18004KT 8000 FEW012 SCT030 BKN060
Forecast period: 0100 to 0500 UTC 26 June 2019
Forecast type: BECOMING: Conditions expected to become as follows by 0400 UTC 26 June 2019
Winds: from the S (180 degrees) at 5 MPH (4 knots; 2.1 m/s)
Visibility: 5 miles (8 km)
Ceiling: 6000 feet AGL
Clouds: few clouds at 1200 feet AGL
scattered clouds at 3000 feet AGL
broken clouds at 6000 feet AGL
Weather: RA BR  (moderate rain, mist)
Text: BECMG 2605/2608 24008KT 9999
Forecast period: 0500 to 0900 UTC 26 June 2019
Forecast type: BECOMING: Conditions expected to become as follows by 0800 UTC 26 June 2019
Winds: from the WSW (240 degrees) at 9 MPH (8 knots; 4.1 m/s)
Visibility: 6 or more miles 10+ km)
Ceiling: 6000 feet AGL
Clouds: few clouds at 1200 feet AGL
scattered clouds at 3000 feet AGL
broken clouds at 6000 feet AGL
Weather: RA BR  (moderate rain, mist)
Text: BECMG 2609/2612 18004KT
Forecast period: 0900 UTC 26 June 2019 to 0000 UTC 27 June 2019
Forecast type: BECOMING: Conditions expected to become as follows by 1200 UTC 26 June 2019
Winds: from the S (180 degrees) at 5 MPH (4 knots; 2.1 m/s)
Visibility: 6 or more miles 10+ km)
Ceiling: 6000 feet AGL
Clouds: few clouds at 1200 feet AGL
scattered clouds at 3000 feet AGL
broken clouds at 6000 feet AGL
Weather: RA BR  (moderate rain, mist)
Text: TEMPO 2618/2623 7000 RA FEW010 SCT021 BKN040
Forecast period: 1800 to 2300 UTC 26 June 2019
Forecast type: TEMPORARY: The following changes expected for less than half the time period
Visibility: 4 miles (7 km)
Ceiling: 4000 feet AGL
Clouds: few clouds at 1000 feet AGL
scattered clouds at 2100 feet AGL
broken clouds at 4000 feet AGL
Weather: RA  (moderate rain)